Tributaries of Vltava river

river Berounka - water gauge Beroun

Date and time (UTC) H (cm) Q (m³/s)
21. 10. 2021 00:00 86 14.4
20. 10. 2021 23:00 87 15
20. 10. 2021 22:00 81 12
20. 10. 2021 21:00 81 12
20. 10. 2021 20:00 87 15
20. 10. 2021 19:00 85 14
20. 10. 2021 18:00 83 13
20. 10. 2021 17:00 83 13
20. 10. 2021 16:00 84 13
20. 10. 2021 15:00 92 18
20. 10. 2021 14:00 83 13
20. 10. 2021 13:00 78 11
20. 10. 2021 12:00 86 14

H - water level, Q - discharge

river Sázava - water gauge Nespeky

Date and time (UTC) H (cm) Q (m³/s)
21. 10. 2021 00:00 58 8
20. 10. 2021 23:00 59 8
20. 10. 2021 22:00 60 9
20. 10. 2021 21:00 61 9
20. 10. 2021 20:00 61 9
20. 10. 2021 19:00 61 9
20. 10. 2021 18:00 61 9
20. 10. 2021 17:00 60 9
20. 10. 2021 16:00 59 8
20. 10. 2021 15:00 59 8
20. 10. 2021 14:00 58 8
20. 10. 2021 13:00 57 8
20. 10. 2021 12:00 57 8

H - water level, Q - discharge

river Otava - water gauge Písek

Date and time (UTC) H (cm) Q (m³/s)
21. 10. 2021 00:00 61 10.2
20. 10. 2021 23:00 63 11
20. 10. 2021 22:00 62 11
20. 10. 2021 21:00 61 10
20. 10. 2021 20:00 62 11
20. 10. 2021 19:00 61 10
20. 10. 2021 18:00 61 10
20. 10. 2021 17:00 61 10
20. 10. 2021 16:00 60 10
20. 10. 2021 15:00 62 11
20. 10. 2021 14:00 63 11
20. 10. 2021 13:00 62 11
20. 10. 2021 12:00 63 11

H - water level, Q - discharge

river Lužnice - water gauge Bechyně

Date and time (UTC) H (cm) Q (m³/s)
21. 10. 2021 00:00 133 17.6
20. 10. 2021 23:00 134 18
20. 10. 2021 22:00 134 18
20. 10. 2021 21:00 135 18
20. 10. 2021 20:00 135 18
20. 10. 2021 19:00 133 18
20. 10. 2021 18:00 135 19
20. 10. 2021 17:00 135 19
20. 10. 2021 16:00 135 19
20. 10. 2021 15:00 136 19
20. 10. 2021 14:00 135 19
20. 10. 2021 13:00 136 19
20. 10. 2021 12:00 137 20

H - water level, Q - discharge
Source data
Labe Basin Vltava Basin Povodí Moravy ČHMÚ